createdAt,value
2022-09-12T16:14:47.431Z,19.79
2022-09-12T16:17:14.025Z,19.71
2022-09-12T16:19:40.623Z,19.65
2022-09-12T16:22:07.188Z,19.61
2022-09-12T16:24:33.844Z,19.55
2022-09-12T16:27:01.500Z,19.49
2022-09-12T16:29:28.184Z,19.45
2022-09-12T16:31:54.737Z,19.34
2022-09-12T16:34:21.310Z,19.31
2022-09-12T16:36:47.985Z,19.27
2022-09-12T16:39:14.699Z,19.24
2022-09-12T16:41:42.735Z,19.18
2022-09-12T16:44:10.247Z,19.15
2022-09-12T16:46:36.925Z,19.11
2022-09-12T16:49:06.122Z,19.08
2022-09-12T16:51:37.673Z,19.00
2022-09-12T16:54:04.390Z,18.93
2022-09-12T16:56:30.993Z,18.88
2022-09-12T16:58:57.573Z,18.82
2022-09-12T17:01:25.690Z,18.79
2022-09-12T17:03:54.258Z,18.67
2022-09-12T17:06:22.015Z,18.54
2022-09-12T17:08:51.013Z,18.45
2022-09-12T17:11:21.141Z,18.40
2022-09-12T17:14:04.317Z,18.38
2022-09-12T17:16:32.140Z,18.36
2022-09-12T17:18:58.727Z,18.34
2022-09-12T17:21:25.703Z,18.26
2022-09-12T17:23:52.372Z,18.24
2022-09-12T17:26:18.944Z,18.14
2022-09-12T17:28:48.158Z,18.10
2022-09-12T17:31:15.150Z,18.08
2022-09-12T17:33:42.070Z,17.99
2022-09-12T17:36:13.270Z,17.88
2022-09-12T17:38:39.927Z,17.78
2022-09-12T17:41:08.658Z,17.75
2022-09-12T17:43:37.942Z,17.70
2022-09-12T17:46:05.328Z,17.65
2022-09-12T17:48:32.488Z,17.60
2022-09-12T17:50:59.388Z,17.55
2022-09-12T17:53:26.267Z,17.49
2022-09-12T17:55:54.415Z,17.45
2022-09-12T17:58:21.066Z,17.39
2022-09-12T18:01:02.923Z,17.37
2022-09-12T18:03:29.600Z,17.34
2022-09-12T18:05:56.500Z,17.22
2022-09-12T18:08:24.256Z,17.15
2022-09-12T18:10:52.332Z,16.95
2022-09-12T18:13:19.966Z,16.87
2022-09-12T18:15:46.595Z,16.95
2022-09-12T18:18:13.264Z,16.93
2022-09-12T18:20:39.907Z,16.87
2022-09-12T18:23:06.701Z,16.83
2022-09-12T18:25:33.403Z,16.67
2022-09-12T18:28:00.499Z,16.55
2022-09-12T18:30:27.210Z,16.48
2022-09-12T18:32:53.921Z,16.46
2022-09-12T18:35:20.533Z,16.43
2022-09-12T18:37:47.169Z,16.39
2022-09-12T18:40:13.826Z,16.22
2022-09-12T18:42:40.456Z,16.07
2022-09-12T18:45:07.629Z,15.94
2022-09-12T18:47:34.176Z,15.81
2022-09-12T18:50:01.341Z,15.85
2022-09-12T18:52:28.244Z,15.82
2022-09-12T18:54:54.869Z,15.89
2022-09-12T18:57:21.432Z,15.89
2022-09-12T18:59:48.278Z,15.90
2022-09-12T19:02:16.398Z,15.93
2022-09-12T19:04:43.863Z,15.85
2022-09-12T19:07:10.729Z,15.57
2022-09-12T19:09:37.433Z,15.62
2022-09-12T19:12:04.214Z,15.61
2022-09-12T19:14:30.932Z,15.58
2022-09-12T19:16:57.607Z,15.49
2022-09-12T19:19:24.196Z,15.30
2022-09-12T19:21:50.805Z,15.38
2022-09-12T19:24:17.563Z,15.46
2022-09-12T19:26:44.772Z,15.42
2022-09-12T19:29:12.263Z,15.18
2022-09-12T19:31:39.894Z,15.06
2022-09-12T19:34:07.836Z,15.18
2022-09-12T19:36:50.402Z,15.22
2022-09-12T19:39:19.574Z,15.24
2022-09-12T19:41:46.981Z,15.16
2022-09-12T19:44:14.353Z,15.09
2022-09-12T19:46:40.990Z,15.12
2022-09-12T19:49:07.888Z,15.08
2022-09-12T19:51:34.568Z,15.10
2022-09-12T19:54:01.140Z,15.12
2022-09-12T19:56:27.719Z,15.06
2022-09-12T19:58:56.619Z,14.99
2022-09-12T20:01:28.351Z,14.89
2022-09-12T20:03:56.281Z,14.97
2022-09-12T20:06:23.252Z,14.98
2022-09-12T20:08:50.079Z,14.96
2022-09-12T20:11:19.118Z,14.96
2022-09-12T20:13:46.146Z,14.97
2022-09-12T20:16:22.170Z,14.97
2022-09-12T20:18:54.668Z,14.98
2022-09-12T20:21:25.403Z,14.98
2022-09-12T20:23:52.265Z,14.97
2022-09-12T20:26:20.386Z,14.99
2022-09-12T20:28:48.631Z,14.89
2022-09-12T20:31:16.557Z,14.93
2022-09-12T20:33:45.804Z,14.90
2022-09-12T20:36:16.808Z,14.78
2022-09-12T20:38:49.616Z,14.72
2022-09-12T20:41:17.097Z,14.77
2022-09-12T20:43:43.651Z,14.77
2022-09-12T20:46:11.508Z,14.81
2022-09-12T20:48:39.214Z,14.84
2022-09-12T20:51:06.774Z,14.82
2022-09-12T20:53:35.222Z,14.71
2022-09-12T20:56:03.262Z,14.64
2022-09-12T20:58:29.961Z,14.56
2022-09-12T21:00:57.213Z,14.54
2022-09-12T21:03:23.763Z,14.51
2022-09-12T21:05:50.351Z,14.44
2022-09-12T21:08:16.996Z,14.49
2022-09-12T21:10:44.808Z,14.52
2022-09-12T21:13:12.908Z,14.53
2022-09-12T21:15:40.713Z,14.48
2022-09-12T21:18:07.683Z,14.53
2022-09-12T21:20:34.783Z,14.55
2022-09-12T21:23:01.419Z,14.57
2022-09-12T21:25:29.181Z,14.61
2022-09-12T21:27:55.802Z,14.60
2022-09-12T21:30:22.513Z,14.60
2022-09-12T21:32:49.262Z,14.62
2022-09-12T21:35:16.133Z,14.44
2022-09-12T21:37:42.815Z,14.30
2022-09-12T21:40:09.838Z,14.19
2022-09-12T21:42:36.451Z,14.06
2022-09-12T21:45:03.062Z,13.94
2022-09-12T21:47:29.666Z,13.83
2022-09-12T21:49:56.374Z,13.79
2022-09-12T21:52:23.022Z,13.89
2022-09-12T21:54:49.632Z,13.96
2022-09-12T21:57:16.200Z,13.90
2022-09-12T21:59:42.782Z,13.93
2022-09-12T22:02:10.888Z,13.79
2022-09-12T22:04:37.540Z,13.91
2022-09-12T22:07:05.465Z,13.76
2022-09-12T22:09:33.937Z,13.85
2022-09-12T22:12:02.269Z,13.75
2022-09-12T22:14:29.487Z,13.79
2022-09-12T22:16:56.834Z,13.82
2022-09-12T22:19:23.721Z,13.82
2022-09-12T22:22:06.041Z,13.81
2022-09-12T22:24:32.617Z,13.77
2022-09-12T22:27:02.375Z,13.65
2022-09-12T22:29:29.014Z,13.62
2022-09-12T22:31:55.743Z,13.57
2022-09-12T22:34:22.623Z,13.55
2022-09-12T22:36:49.182Z,13.45
2022-09-12T22:39:15.823Z,13.47
2022-09-12T22:41:42.413Z,13.47
2022-09-12T22:44:10.754Z,13.45
2022-09-12T22:46:38.401Z,13.39
2022-09-12T22:49:06.651Z,13.33
2022-09-12T22:51:33.934Z,13.31
2022-09-12T22:54:00.514Z,13.28
2022-09-12T22:56:27.584Z,13.17
2022-09-12T22:58:54.514Z,13.14
2022-09-12T23:01:21.372Z,13.12
2022-09-12T23:03:48.048Z,13.12
2022-09-12T23:06:14.724Z,13.04
2022-09-12T23:08:41.470Z,12.98
2022-09-12T23:11:11.341Z,12.99
2022-09-12T23:13:38.676Z,12.98
2022-09-12T23:16:07.119Z,12.97
2022-09-12T23:18:36.090Z,12.95
2022-09-12T23:21:06.841Z,12.92
2022-09-12T23:23:33.952Z,12.87
2022-09-12T23:26:03.503Z,12.75
2022-09-12T23:28:30.283Z,12.63
2022-09-12T23:30:56.964Z,12.44
2022-09-12T23:33:23.696Z,12.31
2022-09-12T23:35:50.305Z,12.28
2022-09-12T23:38:16.896Z,12.43
2022-09-12T23:40:43.425Z,12.44
2022-09-12T23:43:09.982Z,12.49
2022-09-12T23:45:36.518Z,12.49
2022-09-12T23:48:03.268Z,12.45
2022-09-12T23:50:29.833Z,12.51
2022-09-12T23:52:56.393Z,12.50
2022-09-12T23:55:23.717Z,12.46
2022-09-12T23:57:50.272Z,12.44
